Time;durP1;ratioP1;P1;durP2;ratioP2;P2;SDS_P1;SDS_P2;PMS_P1;PMS_P2;Temp;Humidity;BMP_temperature;BMP_pressure;BME280_temperature;BME280_humidity;BME280_pressure;Samples;Min_cycle;Max_cycle;Signal;HPM_P1;HPM_P2
2022/12/10 00:01:26;;;;;;;30.63;16.30;;;;;;;;;;751845;187;917555;-61
2022/12/10 00:03:52;;;;;;;30.77;18.37;;;;;;;;;;748042;187;854048;-62
2022/12/10 00:06:18;;;;;;;29.00;17.37;;;;;;;;;;743936;187;917500;-62
2022/12/10 00:08:44;;;;;;;29.57;18.40;;;;;;;;;;748712;187;876266;-63
2022/12/10 00:11:10;;;;;;;38.43;19.40;;;;;;;;;;740477;190;880480;-61
2022/12/10 00:13:36;;;;;;;25.43;15.63;;;;;;;;;;738668;186;919024;-62
2022/12/10 00:16:02;;;;;;;30.30;15.67;;;;;;;;;;738164;190;919637;-63
2022/12/10 00:18:28;;;;;;;32.00;18.90;;;;;;;;;;743151;186;636432;-62
2022/12/10 00:20:54;;;;;;;40.13;18.23;;;;;;;;;;735655;191;642926;-62
2022/12/10 00:23:20;;;;;;;29.03;16.70;;;;;;;;;;730852;191;917454;-62
2022/12/10 00:25:46;;;;;;;34.42;16.92;;;;;;;;;;751173;186;918968;-61
2022/12/10 00:28:11;;;;;;;24.60;13.27;;;;;;;;;;742277;186;816599;-63
2022/12/10 00:30:37;;;;;;;31.47;16.70;;;;;;;;;;738552;190;915126;-61
2022/12/10 00:33:03;;;;;;;26.03;15.60;;;;;;;;;;758419;186;918044;-61
2022/12/10 00:35:29;;;;;;;28.53;17.07;;;;;;;;;;748072;186;919541;-63
2022/12/10 00:37:55;;;;;;;31.50;16.93;;;;;;;;;;734823;190;919739;-63
2022/12/10 00:40:21;;;;;;;25.17;15.30;;;;;;;;;;740497;184;918963;-63
2022/12/10 00:42:47;;;;;;;30.33;17.05;;;;;;;;;;757088;186;919255;-62
2022/12/10 00:45:12;;;;;;;25.67;16.80;;;;;;;;;;749439;186;918971;-62
2022/12/10 00:47:38;;;;;;;29.47;16.80;;;;;;;;;;756981;186;883200;-61
2022/12/10 00:50:04;;;;;;;40.73;20.73;;;;;;;;;;752013;186;869209;-62
2022/12/10 00:52:30;;;;;;;31.83;17.53;;;;;;;;;;738809;187;939633;-62
2022/12/10 00:54:56;;;;;;;31.77;16.23;;;;;;;;;;744390;188;918393;-61
2022/12/10 00:57:22;;;;;;;27.23;16.90;;;;;;;;;;751504;187;914922;-63
2022/12/10 00:59:48;;;;;;;32.97;18.30;;;;;;;;;;737799;188;917174;-61
2022/12/10 01:02:14;;;;;;;31.57;19.67;;;;;;;;;;733640;187;920898;-62
2022/12/10 01:04:39;;;;;;;32.83;18.53;;;;;;;;;;739674;187;920383;-64
2022/12/10 01:07:06;;;;;;;28.45;18.27;;;;;;;;;;744426;187;920827;-61
2022/12/10 01:09:31;;;;;;;30.07;16.80;;;;;;;;;;743707;186;918771;-62
2022/12/10 01:11:57;;;;;;;25.73;16.93;;;;;;;;;;723549;190;919284;-61
2022/12/10 01:14:24;;;;;;;38.70;19.67;;;;;;;;;;726413;190;816533;-61
2022/12/10 01:16:50;;;;;;;31.43;18.27;;;;;;;;;;723504;190;816224;-63
2022/12/10 01:19:15;;;;;;;28.50;17.03;;;;;;;;;;727655;190;918775;-61
2022/12/10 01:21:41;;;;;;;28.77;15.53;;;;;;;;;;740082;190;816536;-62
2022/12/10 01:24:07;;;;;;;30.33;17.80;;;;;;;;;;736714;190;919078;-61
2022/12/10 01:26:33;;;;;;;28.83;18.10;;;;;;;;;;747437;187;920602;-62
2022/12/10 01:28:59;;;;;;;32.97;16.57;;;;;;;;;;748993;186;933364;-62
2022/12/10 01:31:26;;;;;;;26.30;17.53;;;;;;;;;;753612;186;919033;-62
2022/12/10 01:33:52;;;;;;;23.07;13.07;;;;;;;;;;754808;186;919534;-62
2022/12/10 01:36:20;;;;;;;25.73;15.37;;;;;;;;;;747633;187;920949;-62
2022/12/10 01:38:46;;;;;;;27.33;16.73;;;;;;;;;;752761;188;919414;-61
2022/12/10 01:41:13;;;;;;;30.88;15.32;;;;;;;;;;731675;190;919209;-61
2022/12/10 01:43:45;;;;;;;21.43;13.17;;;;;;;;;;750556;186;920086;-61
2022/12/10 01:46:11;;;;;;;18.07;11.73;;;;;;;;;;747095;187;918595;-62
2022/12/10 01:48:36;;;;;;;19.17;11.37;;;;;;;;;;753098;187;815539;-61
2022/12/10 01:51:02;;;;;;;26.70;14.40;;;;;;;;;;749382;187;870174;-62
2022/12/10 01:53:28;;;;;;;21.53;12.83;;;;;;;;;;746537;186;919621;-62
2022/12/10 01:55:54;;;;;;;20.50;11.80;;;;;;;;;;757701;186;802397;-61
2022/12/10 01:58:20;;;;;;;21.37;12.57;;;;;;;;;;748568;186;819395;-62
2022/12/10 02:00:46;;;;;;;38.07;20.27;;;;;;;;;;741247;187;882337;-61
2022/12/10 02:03:13;;;;;;;12.50;8.83;;;;;;;;;;745233;187;919269;-61
2022/12/10 02:05:40;;;;;;;21.37;12.60;;;;;;;;;;745347;187;921313;-62
2022/12/10 02:08:06;;;;;;;23.30;13.27;;;;;;;;;;735777;190;919301;-61
2022/12/10 02:10:37;;;;;;;26.37;15.77;;;;;;;;;;733769;190;898448;-62
2022/12/10 02:13:13;;;;;;;26.43;11.87;;;;;;;;;;744387;188;811709;-61
2022/12/10 02:15:40;;;;;;;21.30;12.23;;;;;;;;;;739223;188;917399;-61
2022/12/10 02:18:08;;;;;;;22.00;12.20;;;;;;;;;;740365;188;917567;-61
2022/12/10 02:20:36;;;;;;;19.48;11.57;;;;;;;;;;739281;187;1739999;-61
2022/12/10 02:23:01;;;;;;;21.60;12.57;;;;;;;;;;742974;186;817560;-60
2022/12/10 02:25:29;;;;;;;23.23;13.80;;;;;;;;;;743201;186;919266;-59
2022/12/10 02:27:55;;;;;;;21.13;13.17;;;;;;;;;;735117;190;917984;-60
2022/12/10 02:30:20;;;;;;;25.40;13.60;;;;;;;;;;733401;190;919202;-61
2022/12/10 02:32:46;;;;;;;18.10;8.47;;;;;;;;;;753824;186;871763;-62
2022/12/10 02:35:12;;;;;;;24.77;14.43;;;;;;;;;;744290;187;919912;-62
2022/12/10 02:37:39;;;;;;;24.07;15.93;;;;;;;;;;745046;187;920373;-61
2022/12/10 02:40:05;;;;;;;26.30;14.57;;;;;;;;;;754451;187;919811;-60
2022/12/10 02:42:31;;;;;;;28.27;14.70;;;;;;;;;;749388;187;919491;-61
2022/12/10 02:44:57;;;;;;;25.00;15.77;;;;;;;;;;748115;187;919897;-62
2022/12/10 02:47:23;;;;;;;27.70;15.30;;;;;;;;;;752613;187;818742;-60
2022/12/10 02:49:49;;;;;;;40.63;19.67;;;;;;;;;;746833;187;1021995;-61
2022/12/10 02:52:14;;;;;;;38.83;21.77;;;;;;;;;;747160;187;1121715;-61
2022/12/10 02:54:40;;;;;;;30.23;14.30;;;;;;;;;;745599;187;1023240;-62
2022/12/10 02:57:22;;;;;;;33.13;17.37;;;;;;;;;;745094;190;919118;-60
2022/12/10 02:59:53;;;;;;;19.57;12.47;;;;;;;;;;744621;187;878873;-62
2022/12/10 03:02:20;;;;;;;27.50;14.30;;;;;;;;;;741857;188;882838;-61
2022/12/10 03:04:47;;;;;;;29.13;13.00;;;;;;;;;;748988;185;918962;-60
2022/12/10 03:07:13;;;;;;;30.57;17.40;;;;;;;;;;743962;190;1021024;-61
2022/12/10 03:09:44;;;;;;;37.30;20.00;;;;;;;;;;731419;187;919116;-60
2022/12/10 03:12:11;;;;;;;31.20;18.03;;;;;;;;;;745215;186;920526;-61
2022/12/10 03:14:37;;;;;;;26.33;14.70;;;;;;;;;;736205;187;918869;-61
2022/12/10 03:17:03;;;;;;;32.20;19.90;;;;;;;;;;743631;188;632044;-61
2022/12/10 03:19:32;;;;;;;36.57;20.80;;;;;;;;;;740180;190;623536;-61
2022/12/10 03:21:57;;;;;;;38.67;19.60;;;;;;;;;;739475;186;631541;-60
2022/12/10 03:24:23;;;;;;;22.27;11.07;;;;;;;;;;741550;190;640814;-61
2022/12/10 03:26:49;;;;;;;41.30;22.93;;;;;;;;;;749724;187;634953;-60
2022/12/10 03:29:16;;;;;;;39.10;18.80;;;;;;;;;;748764;186;921697;-62
2022/12/10 03:31:42;;;;;;;40.23;19.20;;;;;;;;;;734431;189;819645;-61
2022/12/10 03:34:08;;;;;;;37.03;18.57;;;;;;;;;;743579;186;819510;-59
2022/12/10 03:36:33;;;;;;;37.73;20.93;;;;;;;;;;734688;189;919096;-61
2022/12/10 03:38:59;;;;;;;41.00;21.37;;;;;;;;;;735791;190;918326;-61
2022/12/10 03:41:25;;;;;;;28.30;16.47;;;;;;;;;;745816;186;819244;-60
2022/12/10 03:43:52;;;;;;;24.70;10.77;;;;;;;;;;738841;189;918618;-60
2022/12/10 03:46:18;;;;;;;44.20;21.90;;;;;;;;;;736320;189;896884;-60
2022/12/10 03:48:44;;;;;;;44.80;18.80;;;;;;;;;;750569;187;914837;-60
2022/12/10 03:51:09;;;;;;;32.07;16.97;;;;;;;;;;752575;186;918214;-60
2022/12/10 03:53:35;;;;;;;48.67;23.30;;;;;;;;;;750544;186;878193;-60
2022/12/10 03:56:01;;;;;;;26.70;16.10;;;;;;;;;;746992;186;908751;-60
2022/12/10 03:58:27;;;;;;;38.57;19.67;;;;;;;;;;743830;188;918935;-60
2022/12/10 04:00:53;;;;;;;34.50;16.20;;;;;;;;;;737901;186;815638;-61
2022/12/10 04:03:19;;;;;;;35.87;19.70;;;;;;;;;;744125;186;921481;-61
2022/12/10 04:05:44;;;;;;;44.37;21.27;;;;;;;;;;745383;186;917462;-60
2022/12/10 04:08:10;;;;;;;36.17;18.27;;;;;;;;;;747650;186;920215;-60
2022/12/10 04:10:36;;;;;;;52.53;25.23;;;;;;;;;;739141;187;920916;-61
2022/12/10 04:18:05;;;;;;;68.33;38.03;;;;;;;;;;747714;186;919181;-60
2022/12/10 04:28:06;;;;;;;72.43;38.17;;;;;;;;;;750202;185;920360;-61
2022/12/10 04:30:33;;;;;;;55.93;32.57;;;;;;;;;;756179;183;847393;-60
2022/12/10 04:32:59;;;;;;;49.83;23.87;;;;;;;;;;744679;186;752220;-61
2022/12/10 04:35:24;;;;;;;44.80;26.20;;;;;;;;;;745979;186;919053;-60
2022/12/10 04:37:50;;;;;;;65.90;46.83;;;;;;;;;;752375;186;817002;-61
2022/12/10 04:40:16;;;;;;;41.87;21.67;;;;;;;;;;746506;186;918602;-61
2022/12/10 04:42:42;;;;;;;55.40;25.50;;;;;;;;;;734670;190;919060;-61
2022/12/10 04:45:08;;;;;;;43.97;20.97;;;;;;;;;;753466;187;854130;-61
2022/12/10 04:47:34;;;;;;;50.03;21.55;;;;;;;;;;733798;186;921265;-61
2022/12/10 04:50:00;;;;;;;30.27;16.03;;;;;;;;;;739602;187;820072;-60
2022/12/10 04:52:26;;;;;;;37.80;19.83;;;;;;;;;;740906;186;837699;-62
2022/12/10 04:54:52;;;;;;;41.50;21.83;;;;;;;;;;746033;187;919090;-61
2022/12/10 04:57:17;;;;;;;47.37;24.80;;;;;;;;;;738296;187;918489;-62
2022/12/10 04:59:43;;;;;;;40.80;22.13;;;;;;;;;;732638;190;857857;-62
2022/12/10 05:02:09;;;;;;;44.07;21.60;;;;;;;;;;746680;186;811148;-60
2022/12/10 05:04:35;;;;;;;45.13;23.50;;;;;;;;;;750575;186;915437;-60
2022/12/10 05:07:01;;;;;;;51.67;27.23;;;;;;;;;;748170;186;817172;-61
2022/12/10 05:09:27;;;;;;;67.33;32.93;;;;;;;;;;750497;186;818451;-59
2022/12/10 05:11:53;;;;;;;55.00;27.00;;;;;;;;;;740420;186;910140;-59
2022/12/10 05:14:19;;;;;;;57.00;29.47;;;;;;;;;;728625;187;912358;-61
2022/12/10 05:16:46;;;;;;;54.50;29.33;;;;;;;;;;743674;186;916663;-61
2022/12/10 05:19:12;;;;;;;99.80;43.37;;;;;;;;;;753223;183;918622;-60
2022/12/10 05:24:09;;;;;;;44.17;20.20;;;;;;;;;;733362;189;918614;-61
2022/12/10 05:26:35;;;;;;;56.53;25.83;;;;;;;;;;747532;186;918316;-60
2022/12/10 05:29:01;;;;;;;67.28;34.10;;;;;;;;;;740289;187;927506;-60
2022/12/10 05:31:27;;;;;;;50.30;26.73;;;;;;;;;;744224;186;918728;-60
2022/12/10 05:33:53;;;;;;;59.20;31.27;;;;;;;;;;750036;186;919566;-62
2022/12/10 05:36:19;;;;;;;47.53;23.90;;;;;;;;;;750223;186;918292;-60
2022/12/10 05:38:45;;;;;;;39.43;17.50;;;;;;;;;;736253;190;921110;-59
2022/12/10 05:41:12;;;;;;;48.13;25.43;;;;;;;;;;746498;186;919864;-61
2022/12/10 05:43:38;;;;;;;51.40;27.02;;;;;;;;;;750716;186;920809;-60
2022/12/10 05:46:03;;;;;;;46.63;24.43;;;;;;;;;;744529;187;919495;-60
2022/12/10 05:48:29;;;;;;;46.30;23.60;;;;;;;;;;743434;186;919231;-60
2022/12/10 05:50:55;;;;;;;54.23;26.83;;;;;;;;;;743121;186;914350;-60
2022/12/10 05:53:21;;;;;;;49.30;25.90;;;;;;;;;;740482;186;916789;-59
2022/12/10 05:55:47;;;;;;;49.33;23.27;;;;;;;;;;742899;186;919224;-60
2022/12/10 05:58:13;;;;;;;46.90;24.10;;;;;;;;;;748548;187;814261;-61
2022/12/10 06:00:39;;;;;;;35.40;14.87;;;;;;;;;;741403;187;915918;-59
2022/12/10 06:03:04;;;;;;;44.65;24.45;;;;;;;;;;743371;187;915289;-59
2022/12/10 06:05:30;;;;;;;41.77;21.63;;;;;;;;;;743613;186;853722;-59
2022/12/10 06:07:56;;;;;;;41.23;22.37;;;;;;;;;;730615;190;922157;-59
2022/12/10 06:10:22;;;;;;;45.47;23.48;;;;;;;;;;740470;187;917936;-59
2022/12/10 06:12:48;;;;;;;25.37;11.00;;;;;;;;;;742957;187;912310;-61
2022/12/10 06:15:14;;;;;;;61.50;30.40;;;;;;;;;;748859;187;919293;-61
2022/12/10 06:17:40;;;;;;;60.67;32.13;;;;;;;;;;731201;190;925496;-59
2022/12/10 06:20:06;;;;;;;57.83;32.90;;;;;;;;;;744143;186;917963;-61
2022/12/10 06:22:32;;;;;;;59.33;30.93;;;;;;;;;;748984;186;920588;-60
2022/12/10 06:24:58;;;;;;;54.53;28.57;;;;;;;;;;746346;186;913693;-60
2022/12/10 06:27:23;;;;;;;41.83;20.40;;;;;;;;;;740008;186;920800;-61
2022/12/10 06:29:49;;;;;;;44.30;21.80;;;;;;;;;;736141;190;922548;-59
2022/12/10 06:32:15;;;;;;;108.93;48.97;;;;;;;;;;748578;187;918204;-61
2022/12/10 06:34:41;;;;;;;56.63;23.53;;;;;;;;;;728030;190;918091;-58
2022/12/10 06:37:07;;;;;;;63.57;34.63;;;;;;;;;;745534;186;939801;-59
2022/12/10 06:39:33;;;;;;;69.77;38.70;;;;;;;;;;759965;183;941838;-59
2022/12/10 06:41:59;;;;;;;83.00;44.30;;;;;;;;;;747177;186;931060;-62
2022/12/10 06:44:24;;;;;;;43.90;25.80;;;;;;;;;;746906;187;918678;-59
2022/12/10 06:46:50;;;;;;;44.17;24.77;;;;;;;;;;734417;188;919032;-59
2022/12/10 06:49:16;;;;;;;47.93;22.63;;;;;;;;;;748436;186;883488;-60
2022/12/10 06:51:42;;;;;;;60.07;33.90;;;;;;;;;;748113;186;1022435;-64
2022/12/10 06:54:08;;;;;;;65.57;34.47;;;;;;;;;;744263;186;915306;-60
2022/12/10 06:56:34;;;;;;;33.87;18.13;;;;;;;;;;749684;183;918522;-62
2022/12/10 06:58:59;;;;;;;63.70;33.93;;;;;;;;;;746158;187;919216;-60
2022/12/10 07:01:25;;;;;;;59.73;29.50;;;;;;;;;;736747;186;918077;-61
2022/12/10 07:03:51;;;;;;;38.17;18.43;;;;;;;;;;743420;186;753331;-60
2022/12/10 07:06:17;;;;;;;52.63;25.00;;;;;;;;;;748833;186;918796;-63
2022/12/10 07:08:43;;;;;;;66.85;29.87;;;;;;;;;;735899;190;918820;-60
2022/12/10 07:11:09;;;;;;;62.53;31.30;;;;;;;;;;757139;186;813390;-61
2022/12/10 07:13:35;;;;;;;56.87;30.13;;;;;;;;;;744124;186;817441;-61
2022/12/10 07:16:00;;;;;;;58.50;30.02;;;;;;;;;;738077;187;816669;-60
2022/12/10 07:18:27;;;;;;;58.53;28.70;;;;;;;;;;746238;187;918497;-60
2022/12/10 07:20:52;;;;;;;86.10;38.73;;;;;;;;;;745839;186;919077;-60
2022/12/10 07:23:18;;;;;;;71.27;35.87;;;;;;;;;;733504;187;818062;-64
2022/12/10 07:25:44;;;;;;;64.67;31.23;;;;;;;;;;740337;186;919558;-60
2022/12/10 07:28:10;;;;;;;72.93;37.37;;;;;;;;;;746057;186;945255;-61
2022/12/10 07:30:35;;;;;;;61.90;27.57;;;;;;;;;;741826;186;921212;-61
2022/12/10 07:33:01;;;;;;;59.80;28.60;;;;;;;;;;745679;186;919027;-61
2022/12/10 07:35:27;;;;;;;35.47;17.30;;;;;;;;;;748272;187;918766;-63
2022/12/10 07:37:53;;;;;;;63.70;32.50;;;;;;;;;;737140;186;918764;-63
2022/12/10 07:40:19;;;;;;;47.63;22.27;;;;;;;;;;741879;186;918436;-60
2022/12/10 07:42:45;;;;;;;86.80;39.07;;;;;;;;;;730070;189;917317;-62
2022/12/10 07:45:10;;;;;;;62.57;25.83;;;;;;;;;;741823;186;921291;-59
2022/12/10 07:47:36;;;;;;;51.13;26.57;;;;;;;;;;729821;189;920885;-60
2022/12/10 07:50:03;;;;;;;103.47;43.25;;;;;;;;;;741982;185;893938;-60
2022/12/10 07:52:29;;;;;;;74.87;35.37;;;;;;;;;;747575;183;821775;-60
2022/12/10 07:54:55;;;;;;;105.63;47.67;;;;;;;;;;747077;186;922808;-60
2022/12/10 07:57:21;;;;;;;85.43;43.27;;;;;;;;;;736296;190;1019940;-62
2022/12/10 07:59:46;;;;;;;75.20;36.60;;;;;;;;;;750836;185;915250;-62
2022/12/10 08:02:12;;;;;;;54.07;28.87;;;;;;;;;;744963;186;922758;-61
2022/12/10 08:04:38;;;;;;;74.45;37.40;;;;;;;;;;745678;186;917837;-60
2022/12/10 08:07:04;;;;;;;57.43;30.70;;;;;;;;;;745240;186;919880;-62
2022/12/10 08:09:30;;;;;;;60.90;28.47;;;;;;;;;;739596;186;918981;-59
2022/12/10 08:11:56;;;;;;;47.07;26.87;;;;;;;;;;738157;186;853252;-62
2022/12/10 08:14:22;;;;;;;44.90;23.20;;;;;;;;;;739091;189;819891;-60
2022/12/10 08:16:47;;;;;;;54.27;24.77;;;;;;;;;;738421;189;919601;-59
2022/12/10 08:19:13;;;;;;;55.90;33.60;;;;;;;;;;741498;186;919497;-59
2022/12/10 08:21:39;;;;;;;48.17;26.40;;;;;;;;;;749016;186;919212;-61
2022/12/10 08:24:05;;;;;;;46.10;23.83;;;;;;;;;;741000;186;908027;-61
2022/12/10 08:26:31;;;;;;;30.87;16.90;;;;;;;;;;741819;186;919429;-61
2022/12/10 08:28:57;;;;;;;58.07;28.40;;;;;;;;;;737861;186;918887;-61
2022/12/10 08:31:23;;;;;;;49.03;25.50;;;;;;;;;;753456;186;876823;-60
2022/12/10 08:33:49;;;;;;;37.67;17.80;;;;;;;;;;744488;187;920815;-59
2022/12/10 08:36:14;;;;;;;46.43;26.03;;;;;;;;;;738896;187;920939;-59
2022/12/10 08:38:41;;;;;;;59.28;28.48;;;;;;;;;;745399;187;819427;-59
2022/12/10 08:41:08;;;;;;;42.83;20.37;;;;;;;;;;742425;188;909594;-59
2022/12/10 08:43:34;;;;;;;51.50;24.87;;;;;;;;;;738687;186;918201;-59
2022/12/10 08:46:01;;;;;;;56.90;25.40;;;;;;;;;;742298;186;919469;-60
2022/12/10 08:48:27;;;;;;;38.03;20.60;;;;;;;;;;749075;186;918900;-59
2022/12/10 08:50:53;;;;;;;41.33;21.00;;;;;;;;;;747061;186;851030;-59
2022/12/10 08:53:18;;;;;;;34.93;19.03;;;;;;;;;;746190;186;878301;-59
2022/12/10 08:55:44;;;;;;;37.63;17.70;;;;;;;;;;752590;187;919369;-59
2022/12/10 08:58:10;;;;;;;44.50;21.87;;;;;;;;;;734416;190;918911;-59
2022/12/10 09:00:36;;;;;;;45.83;24.93;;;;;;;;;;732699;191;919596;-59
2022/12/10 09:03:02;;;;;;;47.47;21.90;;;;;;;;;;730926;192;817706;-59
2022/12/10 09:05:28;;;;;;;59.38;29.27;;;;;;;;;;744994;186;815794;-60
2022/12/10 09:07:53;;;;;;;55.17;22.47;;;;;;;;;;745245;186;920620;-59
2022/12/10 09:10:20;;;;;;;43.30;21.90;;;;;;;;;;740876;187;919571;-60
2022/12/10 09:12:45;;;;;;;41.77;21.70;;;;;;;;;;731552;191;917334;-60
2022/12/10 09:15:11;;;;;;;21.70;10.83;;;;;;;;;;730414;191;916512;-59
2022/12/10 09:17:38;;;;;;;41.67;22.13;;;;;;;;;;734456;189;917515;-58
2022/12/10 09:20:03;;;;;;;41.20;20.93;;;;;;;;;;753254;187;885983;-59
2022/12/10 09:22:29;;;;;;;55.93;28.63;;;;;;;;;;733122;186;919155;-59
2022/12/10 09:24:55;;;;;;;48.47;25.97;;;;;;;;;;737035;188;1021734;-59
2022/12/10 09:27:21;;;;;;;47.20;19.47;;;;;;;;;;750320;187;918751;-59
2022/12/10 09:29:47;;;;;;;55.97;25.23;;;;;;;;;;737765;187;920781;-59
2022/12/10 09:32:13;;;;;;;54.87;29.77;;;;;;;;;;745567;186;931212;-59
2022/12/10 09:34:38;;;;;;;47.67;22.60;;;;;;;;;;739149;190;922511;-60
2022/12/10 09:37:04;;;;;;;48.30;22.63;;;;;;;;;;747639;186;919781;-59
2022/12/10 09:39:30;;;;;;;38.03;15.40;;;;;;;;;;747927;187;915162;-59
2022/12/10 09:42:03;;;;;;;38.72;18.42;;;;;;;;;;738725;187;918489;-59
2022/12/10 09:44:29;;;;;;;37.17;17.33;;;;;;;;;;743678;186;919178;-59
2022/12/10 09:46:55;;;;;;;44.57;22.37;;;;;;;;;;740217;187;922119;-59
2022/12/10 09:49:25;;;;;;;68.43;33.97;;;;;;;;;;744297;187;820508;-60
2022/12/10 09:51:51;;;;;;;59.13;29.70;;;;;;;;;;738486;187;918510;-58
2022/12/10 09:54:25;;;;;;;22.40;14.40;;;;;;;;;;745787;186;900188;-59
2022/12/10 09:56:51;;;;;;;36.10;18.10;;;;;;;;;;747682;187;917683;-60
2022/12/10 09:59:21;;;;;;;36.90;17.57;;;;;;;;;;743142;186;920787;-60
2022/12/10 10:01:46;;;;;;;51.47;28.40;;;;;;;;;;751121;186;1019476;-60
2022/12/10 10:04:12;;;;;;;61.47;29.10;;;;;;;;;;745502;186;920120;-61
2022/12/10 10:06:38;;;;;;;60.07;26.73;;;;;;;;;;734745;190;1021530;-61
2022/12/10 10:09:04;;;;;;;47.13;21.33;;;;;;;;;;737811;190;918700;-60
2022/12/10 10:11:30;;;;;;;54.72;24.75;;;;;;;;;;746657;188;919085;-60
2022/12/10 10:13:59;;;;;;;54.10;23.37;;;;;;;;;;744062;186;918969;-60
2022/12/10 10:16:28;;;;;;;78.93;39.20;;;;;;;;;;732728;190;919715;-61
2022/12/10 10:18:59;;;;;;;63.27;30.67;;;;;;;;;;737250;186;816773;-61
2022/12/10 10:21:25;;;;;;;54.73;21.27;;;;;;;;;;747272;186;918662;-61
2022/12/10 10:23:51;;;;;;;26.73;16.87;;;;;;;;;;743053;187;907748;-60
2022/12/10 10:26:17;;;;;;;42.60;19.80;;;;;;;;;;749715;186;918859;-63
2022/12/10 10:28:43;;;;;;;55.73;27.73;;;;;;;;;;743482;186;918657;-63
2022/12/10 10:31:09;;;;;;;76.87;34.03;;;;;;;;;;746601;182;919016;-64
2022/12/10 10:33:35;;;;;;;51.47;25.37;;;;;;;;;;734277;190;816539;-60
2022/12/10 10:36:01;;;;;;;54.53;22.47;;;;;;;;;;748235;186;919276;-65
2022/12/10 10:38:27;;;;;;;39.80;15.10;;;;;;;;;;730936;190;877027;-62
2022/12/10 10:40:54;;;;;;;87.30;39.40;;;;;;;;;;732830;186;939034;-62
2022/12/10 10:43:21;;;;;;;56.47;21.42;;;;;;;;;;736531;186;918928;-62
2022/12/10 10:45:48;;;;;;;63.97;24.97;;;;;;;;;;746108;186;919266;-61
2022/12/10 10:48:18;;;;;;;54.37;22.47;;;;;;;;;;747813;186;853378;-66
2022/12/10 10:50:44;;;;;;;65.13;26.87;;;;;;;;;;742509;186;974233;-62
2022/12/10 10:53:16;;;;;;;54.10;24.60;;;;;;;;;;744356;186;917921;-62
2022/12/10 10:55:42;;;;;;;62.62;29.52;;;;;;;;;;749931;186;921500;-62
2022/12/10 10:58:08;;;;;;;33.20;15.97;;;;;;;;;;744662;186;918098;-67
2022/12/10 11:00:35;;;;;;;51.50;26.00;;;;;;;;;;747606;186;921805;-67
2022/12/10 11:03:00;;;;;;;57.83;27.13;;;;;;;;;;741811;187;916094;-67
2022/12/10 11:05:26;;;;;;;67.10;31.13;;;;;;;;;;747716;186;827966;-68
2022/12/10 11:08:01;;;;;;;57.97;25.33;;;;;;;;;;741083;186;811063;-69
2022/12/10 11:10:27;;;;;;;35.73;18.53;;;;;;;;;;735922;186;897916;-64
2022/12/10 11:12:55;;;;;;;41.00;22.53;;;;;;;;;;745008;186;919043;-71
2022/12/10 11:15:31;;;;;;;62.50;27.03;;;;;;;;;;750787;183;915678;-68
2022/12/10 11:17:57;;;;;;;53.20;25.05;;;;;;;;;;744282;186;918532;-65
2022/12/10 11:20:23;;;;;;;88.57;38.93;;;;;;;;;;744930;186;911919;-65
2022/12/10 11:22:49;;;;;;;52.67;22.47;;;;;;;;;;743608;186;913784;-71
2022/12/10 11:25:15;;;;;;;68.07;28.80;;;;;;;;;;750440;186;918180;-65
2022/12/10 11:27:43;;;;;;;29.10;19.00;;;;;;;;;;747580;186;921031;-68
2022/12/10 11:30:09;;;;;;;36.03;15.83;;;;;;;;;;746981;186;920943;-69
2022/12/10 11:32:38;;;;;;;50.37;26.70;;;;;;;;;;751478;186;916251;-68
2022/12/10 11:35:10;;;;;;;53.77;22.50;;;;;;;;;;733911;190;916972;-68
2022/12/10 11:37:36;;;;;;;64.23;28.67;;;;;;;;;;747957;186;818101;-67
2022/12/10 11:40:18;;;;;;;49.17;25.30;;;;;;;;;;744579;186;912709;-69
2022/12/10 11:42:44;;;;;;;57.17;27.40;;;;;;;;;;741567;187;919935;-68
2022/12/10 11:45:14;;;;;;;48.80;22.10;;;;;;;;;;746095;186;936944;-65
2022/12/10 11:47:40;;;;;;;37.03;17.10;;;;;;;;;;743890;186;809156;-65
2022/12/10 11:50:22;;;;;;;40.20;20.57;;;;;;;;;;743700;186;924057;-64
2022/12/10 11:52:49;;;;;;;64.27;26.70;;;;;;;;;;734202;190;918684;-66
2022/12/10 11:55:21;;;;;;;48.63;23.87;;;;;;;;;;732004;190;861727;-66
2022/12/10 11:57:49;;;;;;;37.63;16.73;;;;;;;;;;735864;189;1019473;-66
2022/12/10 12:00:19;;;;;;;44.87;23.77;;;;;;;;;;740972;187;1021277;-66
2022/12/10 12:02:48;;;;;;;62.97;26.87;;;;;;;;;;738092;190;919173;-66
2022/12/10 12:05:18;;;;;;;66.13;30.80;;;;;;;;;;736895;190;920264;-69
2022/12/10 12:07:48;;;;;;;46.60;26.00;;;;;;;;;;746965;186;918426;-70
2022/12/10 12:10:17;;;;;;;34.53;16.40;;;;;;;;;;737547;186;920494;-68
2022/12/10 12:12:49;;;;;;;25.67;13.87;;;;;;;;;;747202;186;896963;-68
2022/12/10 12:15:15;;;;;;;54.83;22.57;;;;;;;;;;750078;186;919072;-65
2022/12/10 12:17:42;;;;;;;60.17;28.70;;;;;;;;;;748315;186;917907;-68
2022/12/10 12:20:09;;;;;;;53.23;29.23;;;;;;;;;;733171;187;919113;-64
2022/12/10 12:22:35;;;;;;;58.40;26.80;;;;;;;;;;728333;190;914436;-64
2022/12/10 12:25:00;;;;;;;52.60;20.90;;;;;;;;;;721860;193;919520;-64
2022/12/10 12:27:26;;;;;;;68.70;28.40;;;;;;;;;;742379;187;920927;-69
2022/12/10 12:30:07;;;;;;;59.00;24.40;;;;;;;;;;735503;190;816849;-66
2022/12/10 12:32:48;;;;;;;64.47;25.13;;;;;;;;;;747019;186;905120;-65
2022/12/10 12:35:14;;;;;;;32.13;16.53;;;;;;;;;;746918;186;871905;-68
2022/12/10 12:37:42;;;;;;;61.93;22.57;;;;;;;;;;745482;184;875044;-67
2022/12/10 12:40:10;;;;;;;65.00;18.57;;;;;;;;;;751743;186;919353;-66
2022/12/10 12:42:52;;;;;;;69.57;30.80;;;;;;;;;;746040;187;918839;-66
2022/12/10 12:45:19;;;;;;;49.00;23.03;;;;;;;;;;741668;186;843602;-65
2022/12/10 12:47:46;;;;;;;57.27;24.70;;;;;;;;;;737190;189;920313;-65
2022/12/10 12:50:18;;;;;;;48.83;26.37;;;;;;;;;;748391;186;918997;-68
2022/12/10 12:52:44;;;;;;;33.30;17.47;;;;;;;;;;749822;186;821420;-64
2022/12/10 12:55:15;;;;;;;63.10;28.67;;;;;;;;;;744243;186;918532;-67
2022/12/10 12:57:42;;;;;;;56.90;18.97;;;;;;;;;;746504;186;918899;-64
2022/12/10 13:00:10;;;;;;;70.90;31.45;;;;;;;;;;747530;186;830012;-67
2022/12/10 13:02:42;;;;;;;52.35;23.52;;;;;;;;;;747869;186;916181;-66
2022/12/10 13:05:24;;;;;;;45.07;20.13;;;;;;;;;;721463;190;918742;-65
2022/12/10 13:08:04;;;;;;;42.17;20.33;;;;;;;;;;726432;194;918721;-67
2022/12/10 13:10:30;;;;;;;44.03;20.37;;;;;;;;;;720584;192;1020958;-64
2022/12/10 13:13:02;;;;;;;36.03;18.80;;;;;;;;;;719336;192;914142;-68
2022/12/10 13:15:33;;;;;;;63.33;29.63;;;;;;;;;;748294;187;812999;-67
2022/12/10 13:18:03;;;;;;;51.50;23.27;;;;;;;;;;752867;186;817519;-63
2022/12/10 13:20:32;;;;;;;68.12;28.48;;;;;;;;;;746861;187;941618;-68
2022/12/10 13:22:59;;;;;;;51.27;25.37;;;;;;;;;;738043;187;919116;-68
2022/12/10 13:25:30;;;;;;;63.40;26.73;;;;;;;;;;741130;186;916300;-66
2022/12/10 13:27:56;;;;;;;29.67;13.63;;;;;;;;;;751573;186;919034;-69
2022/12/10 13:30:25;;;;;;;38.37;16.67;;;;;;;;;;742325;187;919040;-67
2022/12/10 13:32:51;;;;;;;58.23;25.20;;;;;;;;;;739431;187;919492;-68
2022/12/10 13:35:16;;;;;;;45.47;22.40;;;;;;;;;;734717;190;929268;-70
2022/12/10 13:37:56;;;;;;;70.57;28.87;;;;;;;;;;747395;186;922372;-64
2022/12/10 13:45:46;;;;;;;49.38;25.08;;;;;;;;;;739615;187;925414;-64
2022/12/10 13:48:16;;;;;;;42.30;22.53;;;;;;;;;;743863;186;895705;-68
2022/12/10 13:50:41;;;;;;;43.43;20.50;;;;;;;;;;735664;187;914476;-64
2022/12/10 13:53:08;;;;;;;45.97;19.92;;;;;;;;;;748558;186;911202;-64
2022/12/10 13:55:35;;;;;;;40.97;18.60;;;;;;;;;;741412;186;919934;-64
2022/12/10 13:58:17;;;;;;;21.90;12.13;;;;;;;;;;744222;185;818745;-63
2022/12/10 14:00:48;;;;;;;48.83;18.20;;;;;;;;;;738717;187;829305;-69
2022/12/10 14:03:14;;;;;;;48.13;23.48;;;;;;;;;;744923;186;918229;-68
2022/12/10 14:05:55;;;;;;;44.97;18.63;;;;;;;;;;751335;186;803022;-69
2022/12/10 14:08:21;;;;;;;44.97;20.70;;;;;;;;;;744592;186;746738;-68
2022/12/10 14:10:48;;;;;;;37.27;18.20;;;;;;;;;;745534;186;844891;-68
2022/12/10 14:13:14;;;;;;;26.77;15.53;;;;;;;;;;749203;186;918959;-63
2022/12/10 14:15:40;;;;;;;46.73;19.80;;;;;;;;;;751026;186;912819;-63
2022/12/10 14:18:07;;;;;;;36.90;16.90;;;;;;;;;;744650;186;816457;-70
2022/12/10 14:20:32;;;;;;;38.87;18.80;;;;;;;;;;737416;190;846278;-68
2022/12/10 14:23:32;;;;;;;51.37;19.27;;;;;;;;;;748097;186;916968;-64